Time;durP1;ratioP1;P1;durP2;ratioP2;P2;SDS_P1;SDS_P2;PMS_P1;PMS_P2;Temp;Humidity;BMP_temperature;BMP_pressure;BME280_temperature;BME280_humidity;BME280_pressure;Samples;Min_cycle;Max_cycle;Signal;HPM_P1;HPM_P2
2022/01/22 00:02:14;;;;;;;9.47;3.13;;;;;;;-0.68;79.90;100334.34;10506854;28;20208;-66
2022/01/22 00:07:17;;;;;;;6.40;2.23;;;;;;;-0.77;80.85;100356.94;10506581;28;20224;-64
2022/01/22 00:12:44;;;;;;;9.97;2.93;;;;;;;-0.90;81.77;100342.94;10506469;28;20303;-65
2022/01/22 00:17:49;;;;;;;8.37;2.93;;;;;;;-0.81;82.62;100339.84;10506222;28;20238;-68
2022/01/22 00:22:53;;;;;;;7.03;2.43;;;;;;;-1.04;84.42;100344.13;10506403;28;20676;-67
2022/01/22 00:27:57;;;;;;;8.70;2.30;;;;;;;-1.08;86.03;100341.41;10506072;28;20232;-66
2022/01/22 00:33:00;;;;;;;7.13;2.80;;;;;;;-1.21;87.30;100350.28;10505784;28;20216;-66
2022/01/22 00:38:04;;;;;;;8.57;2.57;;;;;;;-1.07;87.15;100359.28;10505425;28;20319;-64
2022/01/22 00:43:12;;;;;;;9.13;3.40;;;;;;;-1.27;90.16;100347.50;10505638;28;20266;-66
2022/01/22 00:48:15;;;;;;;6.47;2.40;;;;;;;-1.22;91.47;100344.31;10505489;28;20657;-66
2022/01/22 00:53:18;;;;;;;8.40;2.93;;;;;;;-1.19;92.66;100349.53;10504900;28;20669;-65
2022/01/22 00:58:23;;;;;;;6.47;1.90;;;;;;;-1.17;93.54;100351.28;10504777;28;20220;-64
2022/01/22 01:03:32;;;;;;;7.50;2.03;;;;;;;-1.16;93.39;100347.06;10504581;28;20216;-63
2022/01/22 01:08:36;;;;;;;12.47;2.47;;;;;;;-1.16;94.05;100346.25;10504229;28;20546;-65
2022/01/22 01:13:45;;;;;;;6.93;2.53;;;;;;;-1.26;95.73;100354.34;10504046;28;20223;-67
2022/01/22 01:34:52;;;;;;;12.03;2.30;;;;;;;-1.33;98.60;100324.41;10503098;28;20556;-66
2022/01/22 01:40:00;;;;;;;7.60;2.80;;;;;;;-1.30;98.42;100329.59;10503259;28;20220;-65
2022/01/22 01:45:07;;;;;;;7.47;2.70;;;;;;;-1.46;99.53;100329.84;10502691;28;20219;-64
2022/01/22 01:50:11;;;;;;;5.50;2.50;;;;;;;-1.40;100.00;100328.38;10502560;28;20733;-65
2022/01/22 01:55:19;;;;;;;8.77;2.87;;;;;;;-1.27;100.00;100340.75;10502593;28;20219;-65
2022/01/22 02:00:26;;;;;;;8.90;2.73;;;;;;;-1.36;100.00;100335.31;10502167;28;20541;-68
2022/01/22 02:05:31;;;;;;;8.17;2.97;;;;;;;-1.29;100.00;100333.84;10502079;28;20228;-66
2022/01/22 02:10:38;;;;;;;8.27;2.13;;;;;;;-1.33;100.00;100324.41;10502828;28;20226;-66
2022/01/22 02:26:28;;;;;;;5.00;2.20;;;;;;;-1.07;100.00;100326.16;10501509;28;20242;-64
2022/01/22 02:31:36;;;;;;;5.13;1.97;;;;;;;-1.02;99.55;100316.16;10501103;28;20216;-66
2022/01/22 02:36:46;;;;;;;7.73;2.33;;;;;;;-1.06;98.35;100312.66;10500305;28;20551;-62
2022/01/22 02:41:51;;;;;;;7.30;2.20;;;;;;;-1.12;98.77;100309.88;10501091;28;20230;-68
2022/01/22 02:46:55;;;;;;;7.10;2.30;;;;;;;-1.35;100.00;100320.94;10500770;28;20224;-65
2022/01/22 02:52:01;;;;;;;8.43;2.50;;;;;;;-1.30;100.00;100319.41;10500948;28;20222;-67
2022/01/22 02:57:04;;;;;;;8.83;2.37;;;;;;;-1.27;100.00;100329.69;10500827;28;20228;-65
2022/01/22 03:02:12;;;;;;;7.83;2.40;;;;;;;-1.34;99.45;100327.75;10500497;28;20635;-65
2022/01/22 03:07:18;;;;;;;8.27;2.23;;;;;;;-1.27;99.48;100340.75;10500635;28;20649;-64
2022/01/22 03:12:48;;;;;;;7.50;2.23;;;;;;;-1.35;99.56;100337.03;10501064;28;20650;-66
2022/01/22 03:17:57;;;;;;;5.37;1.87;;;;;;;-1.33;99.72;100325.25;10499899;28;20681;-68
2022/01/22 03:23:09;;;;;;;7.60;2.20;;;;;;;-1.38;100.00;100331.84;10500059;28;20545;-66
2022/01/22 03:28:18;;;;;;;5.97;2.13;;;;;;;-1.26;98.83;100334.84;10500048;28;20234;-65
2022/01/22 03:33:23;;;;;;;5.50;2.03;;;;;;;-1.23;98.31;100352.78;10500016;28;20216;-65
2022/01/22 03:38:28;;;;;;;8.10;2.53;;;;;;;-1.23;97.91;100347.69;10499740;28;20224;-66
2022/01/22 03:43:31;;;;;;;6.93;2.03;;;;;;;-1.23;97.74;100347.69;10500177;28;20216;-63
2022/01/22 03:48:35;;;;;;;4.40;1.43;;;;;;;-1.23;97.59;100354.47;10504803;28;20561;-64
2022/01/22 03:53:40;;;;;;;8.43;2.10;;;;;;;-1.21;96.78;100350.28;10507167;28;20220;-65
2022/01/22 03:58:45;;;;;;;5.87;1.73;;;;;;;-1.20;96.97;100347.81;10507179;28;20215;-68
2022/01/22 04:03:56;;;;;;;7.37;1.87;;;;;;;-1.17;96.75;100349.56;10506687;28;20216;-68
2022/01/22 04:09:05;;;;;;;9.87;2.67;;;;;;;-1.08;95.79;100359.22;10506840;28;20311;-66
2022/01/22 04:14:15;;;;;;;5.90;1.77;;;;;;;-1.15;95.29;100368.31;10506627;28;20230;-68
2022/01/22 04:24:51;;;;;;;12.80;2.50;;;;;;;-1.15;95.39;100365.78;10506045;28;20222;-66
2022/01/22 04:29:57;;;;;;;6.23;1.97;;;;;;;-1.16;95.32;100370.00;10505740;28;20648;-69
2022/01/22 04:35:01;;;;;;;6.50;1.40;;;;;;;-1.13;94.82;100361.63;10506007;28;20238;-66
2022/01/22 04:40:08;;;;;;;5.83;2.13;;;;;;;-1.14;95.00;100387.03;10505506;28;20671;-63
2022/01/22 04:45:19;;;;;;;8.03;2.00;;;;;;;-1.29;96.11;100387.31;10505274;28;20212;-62
2022/01/22 04:55:45;;;;;;;7.40;1.80;;;;;;;-1.20;96.67;100396.16;10505402;28;20224;-65
2022/01/22 05:00:49;;;;;;;4.70;1.80;;;;;;;-1.08;96.41;100400.84;10503733;28;20214;-62
2022/01/22 05:05:52;;;;;;;9.33;2.23;;;;;;;-0.99;94.93;100408.81;10504589;28;20216;-65
2022/01/22 05:10:56;;;;;;;6.30;2.03;;;;;;;-0.95;94.67;100407.25;10504149;28;20658;-65
2022/01/22 05:15:59;;;;;;;8.77;2.07;;;;;;;-0.98;94.83;100405.44;10503931;28;20665;-66
2022/01/22 05:21:08;;;;;;;7.63;2.43;;;;;;;-1.00;94.46;100416.41;10503865;28;20236;-67
2022/01/22 05:26:30;;;;;;;5.50;1.43;;;;;;;-0.98;94.25;100417.34;10503448;28;20228;-66
2022/01/22 05:31:42;;;;;;;7.47;2.23;;;;;;;-0.89;94.40;100426.16;10503463;28;20220;-69
2022/01/22 05:36:58;;;;;;;10.23;2.10;;;;;;;-0.73;93.59;100427.56;10503050;28;20219;-65
2022/01/22 05:42:06;;;;;;;7.90;1.50;;;;;;;-0.79;93.43;100440.94;10503219;28;20533;-66
2022/01/22 05:47:09;;;;;;;7.67;1.63;;;;;;;-0.71;93.13;100451.44;10502450;28;20224;-70
2022/01/22 05:52:15;;;;;;;6.10;1.47;;;;;;;-0.68;92.92;100459.19;10502726;28;20542;-66
2022/01/22 06:02:40;;;;;;;11.10;1.83;;;;;;;-0.66;92.25;100472.84;10500253;28;20552;-67
2022/01/22 06:07:45;;;;;;;7.83;2.00;;;;;;;-0.70;92.82;100484.59;10165196;27;10000083;-63
2022/01/22 06:13:09;;;;;;;9.43;2.00;;;;;;;-0.56;93.91;100485.09;10540367;28;20215;-68
2022/01/22 06:18:12;;;;;;;11.37;1.80;;;;;;;-0.59;96.24;100498.63;10540233;28;20243;-65
2022/01/22 06:23:15;;;;;;;9.47;2.20;;;;;;;-0.55;96.18;100500.44;10539931;28;20548;-65
2022/01/22 06:28:20;;;;;;;6.30;1.63;;;;;;;-0.52;95.37;100523.47;10539824;28;20227;-67
2022/01/22 06:33:23;;;;;;;12.43;2.37;;;;;;;-0.54;97.71;100521.69;10539855;28;20215;-67
2022/01/22 06:38:27;;;;;;;8.63;2.40;;;;;;;-0.77;100.00;100523.41;10539525;28;20219;-69
2022/01/22 06:43:32;;;;;;;7.57;2.00;;;;;;;-0.70;100.00;100534.69;10539597;28;20234;-66
2022/01/22 06:48:36;;;;;;;4.73;1.70;;;;;;;-0.74;100.00;100541.34;10539306;28;20276;-64
2022/01/22 06:53:40;;;;;;;6.07;1.70;;;;;;;-0.55;100.00;100540.38;10539176;28;20226;-64
2022/01/22 06:58:49;;;;;;;6.70;1.90;;;;;;;-0.47;100.00;100542.38;10539516;28;20233;-64
2022/01/22 07:03:52;;;;;;;11.93;2.30;;;;;;;-0.51;100.00;100545.63;10539030;28;20221;-65
2022/01/22 07:08:56;;;;;;;6.33;1.90;;;;;;;-0.51;100.00;100562.59;10510760;28;20220;-68
2022/01/22 07:14:00;;;;;;;4.90;1.87;;;;;;;-0.57;100.00;100568.31;10497258;28;20212;-66
2022/01/22 07:19:04;;;;;;;11.93;2.50;;;;;;;-0.45;100.00;100568.75;10497039;28;20242;-65
2022/01/22 07:24:26;;;;;;;5.53;2.00;;;;;;;-0.41;100.00;100567.19;10503522;28;20684;-65
2022/01/22 07:29:31;;;;;;;17.00;3.00;;;;;;;-0.37;100.00;100572.50;10504639;28;20224;-66
2022/01/22 07:34:34;;;;;;;7.93;2.00;;;;;;;-0.38;100.00;100580.94;10504324;28;20252;-68
2022/01/22 07:39:38;;;;;;;6.13;1.53;;;;;;;-0.36;100.00;100579.31;10504689;28;20216;-67
2022/01/22 07:44:42;;;;;;;11.67;2.40;;;;;;;-0.27;100.00;100589.84;10504276;28;20215;-65
2022/01/22 07:49:46;;;;;;;4.53;1.63;;;;;;;-0.07;100.00;100596.53;10503496;28;20566;-64
2022/01/22 07:54:49;;;;;;;4.70;1.80;;;;;;;-0.04;100.00;100616.19;10504016;28;20627;-67
2022/01/22 07:59:53;;;;;;;10.43;2.40;;;;;;;-0.08;100.00;100624.53;10503606;28;20226;-63
2022/01/22 08:04:56;;;;;;;6.23;1.90;;;;;;;-0.18;100.00;100631.00;10503497;28;20676;-68
2022/01/22 08:10:00;;;;;;;12.23;2.43;;;;;;;-0.22;100.00;100634.22;10503020;28;20571;-66
2022/01/22 08:15:05;;;;;;;7.00;2.50;;;;;;;-0.01;100.00;100652.88;10502979;28;20216;-69
2022/01/22 08:20:12;;;;;;;6.37;1.90;;;;;;;0.11;100.00;100664.31;10502711;28;20224;-67
2022/01/22 08:25:15;;;;;;;7.03;2.10;;;;;;;0.30;100.00;100679.47;10502730;28;20794;-70
2022/01/22 08:30:19;;;;;;;7.00;2.10;;;;;;;0.41;100.00;100690.94;10502727;28;20220;-68
2022/01/22 08:40:44;;;;;;;8.40;2.80;;;;;;;0.45;100.00;100724.28;10505229;28;20227;-67
2022/01/22 08:45:49;;;;;;;10.63;2.77;;;;;;;0.56;100.00;100733.22;10505112;28;20308;-71
2022/01/22 08:50:53;;;;;;;7.63;2.70;;;;;;;0.67;100.00;100736.16;10504926;28;20600;-68
2022/01/22 08:56:16;;;;;;;22.97;7.77;;;;;;;0.71;100.00;100728.63;10504690;28;20222;-69
2022/01/22 09:01:21;;;;;;;7.97;2.70;;;;;;;0.91;100.00;100735.31;10504591;28;20215;-67
2022/01/22 09:06:25;;;;;;;9.83;2.17;;;;;;;1.28;100.00;100736.53;10504313;28;20227;-70
2022/01/22 09:11:28;;;;;;;21.83;9.57;;;;;;;1.83;100.00;100753.66;10504186;28;20216;-68
2022/01/22 09:16:34;;;;;;;7.03;1.73;;;;;;;1.70;96.16;100769.47;10503338;28;20215;-63
2022/01/22 09:21:40;;;;;;;7.07;2.23;;;;;;;1.56;96.40;100769.84;10500762;28;20220;-65
2022/01/22 09:26:43;;;;;;;5.47;2.27;;;;;;;1.50;96.52;100779.88;10149539;27;10000035;-64
2022/01/22 09:31:48;;;;;;;5.80;1.93;;;;;;;1.35;91.72;100794.72;10500033;28;20661;-66
2022/01/22 09:36:51;;;;;;;10.30;2.40;;;;;;;1.36;90.09;100811.78;10499984;28;20223;-66
2022/01/22 09:41:55;;;;;;;8.13;2.13;;;;;;;1.36;87.25;100799.88;10499368;28;20222;-67
2022/01/22 09:47:09;;;;;;;8.10;1.70;;;;;;;1.35;87.86;100802.41;10502135;28;20227;-68
2022/01/22 09:52:13;;;;;;;7.50;1.80;;;;;;;1.68;86.29;100818.81;10502482;28;20222;-69
2022/01/22 09:57:16;;;;;;;4.33;1.67;;;;;;;1.62;84.99;100839.97;10502092;28;20303;-65
2022/01/22 10:02:23;;;;;;;6.70;2.07;;;;;;;1.64;85.38;100843.44;10502014;28;20212;-68
2022/01/22 10:07:26;;;;;;;4.07;1.40;;;;;;;1.63;85.32;100857.06;10501833;28;20238;-66
2022/01/22 10:12:31;;;;;;;6.77;1.83;;;;;;;1.61;85.94;100861.25;10501889;28;20226;-66
2022/01/22 10:17:47;;;;;;;5.63;1.70;;;;;;;1.59;85.57;100868.00;10501491;28;20246;-69
2022/01/22 10:22:52;;;;;;;4.17;1.40;;;;;;;1.73;82.42;100866.75;10498317;28;20215;-68
2022/01/22 10:27:57;;;;;;;6.00;2.10;;;;;;;1.78;78.02;100874.59;10498867;28;20219;-67
2022/01/22 10:33:08;;;;;;;5.17;1.27;;;;;;;1.81;78.91;100878.09;10497779;28;20577;-65
2022/01/22 10:38:11;;;;;;;4.47;1.30;;;;;;;1.90;77.53;100891.22;10498093;28;20586;-68
2022/01/22 10:43:20;;;;;;;4.00;1.27;;;;;;;1.65;77.42;100916.81;10497467;28;20222;-65
2022/01/22 10:48:25;;;;;;;6.47;2.27;;;;;;;1.80;79.98;100913.88;10498144;28;20236;-67
2022/01/22 10:53:50;;;;;;;5.87;2.00;;;;;;;1.88;79.14;100927.81;10497638;28;20226;-68
2022/01/22 10:58:56;;;;;;;7.00;2.23;;;;;;;1.96;79.17;100929.81;10160771;27;10000297;-66
2022/01/22 11:04:10;;;;;;;8.13;2.03;;;;;;;1.97;79.02;100936.66;10539101;28;20297;-68
2022/01/22 11:09:13;;;;;;;4.23;1.77;;;;;;;1.88;77.83;100930.38;10538711;28;20569;-67
2022/01/22 11:14:17;;;;;;;3.77;1.30;;;;;;;2.64;74.73;100939.69;10538331;28;20207;-67
2022/01/22 11:19:30;;;;;;;6.90;2.93;;;;;;;2.62;72.68;100953.28;10538619;28;20231;-71
2022/01/22 11:24:35;;;;;;;5.03;1.87;;;;;;;2.86;70.51;100956.59;10538651;28;20230;-70
2022/01/22 11:29:46;;;;;;;4.97;1.80;;;;;;;4.53;67.40;100956.00;10541168;28;20223;-67
2022/01/22 11:34:53;;;;;;;;;;;;;;;5.90;62.36;100945.22;10541979;28;20457;-67
2022/01/22 11:40:09;;;;;;;;;;;;;;;6.42;59.29;100947.84;10541616;28;19930;-64
2022/01/22 11:45:23;;;;;;;;;;;;;;;6.12;60.10;100947.31;10541612;28;20237;-71
2022/01/22 11:50:28;;;;;;;4.47;2.03;;;;;;;7.01;58.13;100955.59;10541233;28;20208;-64
2022/01/22 11:55:31;;;;;;;4.13;1.67;;;;;;;6.16;59.48;100965.41;10541233;28;20934;-68
2022/01/22 12:00:41;;;;;;;4.07;1.63;;;;;;;7.19;57.92;100974.75;10540975;28;20226;-62
2022/01/22 12:06:05;;;;;;;4.10;1.77;;;;;;;7.39;55.77;100978.44;10541089;28;20641;-67
2022/01/22 12:17:02;;;;;;;4.50;1.87;;;;;;;8.62;52.67;100984.94;10547772;28;20246;-62
2022/01/22 12:22:30;;;;;;;8.13;2.47;;;;;;;8.65;50.71;100997.91;10507631;28;20211;-64
2022/01/22 12:27:43;;;;;;;4.57;1.67;;;;;;;8.12;51.78;101007.75;10504872;28;20216;-65
2022/01/22 12:32:48;;;;;;;5.00;1.60;;;;;;;6.73;55.02;101036.00;10505844;28;20238;-66
2022/01/22 12:38:20;;;;;;;6.47;2.70;;;;;;;7.47;53.52;101033.66;10505640;28;20232;-64
2022/01/22 12:43:29;;;;;;;5.27;1.83;;;;;;;6.58;53.98;101038.34;10505333;28;20218;-63
2022/01/22 12:48:38;;;;;;;4.60;2.00;;;;;;;6.56;53.77;101042.59;10503953;28;20231;-64
2022/01/22 12:53:48;;;;;;;4.53;1.93;;;;;;;6.24;54.61;101040.31;10478926;28;20221;-64
2022/01/22 12:58:52;;;;;;;9.77;2.83;;;;;;;5.70;56.05;101042.66;10463130;28;20225;-62
2022/01/22 13:03:56;;;;;;;9.98;2.80;;;;;;;5.22;57.91;101069.91;10460322;28;20414;-66
2022/01/22 13:09:00;;;;;;;7.17;1.93;;;;;;;4.79;58.78;101074.88;10462326;28;20239;-64
2022/01/22 13:14:04;;;;;;;5.80;2.20;;;;;;;4.32;59.10;101077.13;10462623;28;20269;-68
2022/01/22 13:19:07;;;;;;;;;;;;;;;3.70;59.60;101091.63;10461963;28;20068;-68
2022/01/22 13:24:12;;;;;;;4.95;1.88;;;;;;;3.48;60.93;101103.84;10480120;28;20197;-68
2022/01/22 13:29:27;;;;;;;6.00;2.25;;;;;;;3.31;61.54;101114.41;10500098;28;20414;-64
2022/01/22 13:34:40;;;;;;;5.63;2.30;;;;;;;3.12;62.50;101107.81;10497387;28;20441;-65
2022/01/22 13:40:10;;;;;;;5.93;2.30;;;;;;;2.88;65.63;101114.72;10497223;28;20393;-62
2022/01/22 13:45:25;;;;;;;9.80;2.23;;;;;;;2.93;65.62;101123.47;10500268;28;20289;-65
2022/01/22 13:50:30;;;;;;;4.37;1.90;;;;;;;3.06;62.98;101128.13;10499318;28;20755;-65
2022/01/22 13:55:34;;;;;;;9.47;3.20;;;;;;;2.82;64.04;101134.16;10499381;28;20220;-70
2022/01/22 14:00:38;;;;;;;10.87;1.90;;;;;;;2.77;62.94;101148.50;10156564;27;9999757;-67
2022/01/22 14:06:01;;;;;;;9.20;2.43;;;;;;;3.01;62.53;101157.00;10540634;28;20452;-64
2022/01/22 14:11:07;;;;;;;;;;;;;;;2.76;62.05;101160.44;10541494;28;20052;-63
2022/01/22 14:16:11;;;;;;;;;;;;;;;2.37;63.81;101177.00;10540673;28;19923;-66
2022/01/22 14:21:17;;;;;;;;;;;;;;;1.88;65.75;101192.25;10540874;28;20379;-63
2022/01/22 14:26:26;;;;;;;;;;;;;;;1.76;67.22;101203.72;10540586;28;20297;-63
2022/01/22 14:31:30;;;;;;;;;;;;;;;1.55;67.70;101211.44;10539988;28;19997;-66
2022/01/22 14:36:34;;;;;;;;;;;;;;;1.61;68.19;101221.91;10483973;28;19926;-65
2022/01/22 14:47:13;;;;;;;;;;;;;;;1.34;68.61;101228.47;10493512;28;19927;-68
2022/01/22 14:52:24;;;;;;;7.97;2.40;;;;;;;1.48;67.13;101232.47;10497743;28;20211;-66
2022/01/22 14:57:32;;;;;;;4.73;1.97;;;;;;;1.43;67.33;101246.75;10497103;28;20557;-65
2022/01/22 15:02:36;;;;;;;6.30;2.23;;;;;;;1.38;67.03;101248.22;10522668;28;20238;-61
2022/01/22 15:07:41;;;;;;;6.77;2.30;;;;;;;1.11;68.70;101257.31;10533016;28;20216;-63
2022/01/22 15:12:45;;;;;;;11.07;4.53;;;;;;;1.03;69.54;101267.25;10496736;28;20724;-60
2022/01/22 15:18:12;;;;;;;16.10;3.30;;;;;;;0.93;69.66;101267.63;10483359;28;20236;-63
2022/01/22 15:23:15;;;;;;;5.87;2.20;;;;;;;0.96;68.35;101282.25;10455188;28;20293;-64
2022/01/22 15:28:22;;;;;;;7.13;2.57;;;;;;;0.92;68.20;101296.56;10455312;28;20404;-62
2022/01/22 15:33:36;;;;;;;4.90;1.90;;;;;;;0.83;68.17;101297.84;10455420;28;20217;-64
2022/01/22 15:38:40;;;;;;;7.37;2.20;;;;;;;0.68;69.38;101305.72;10454528;28;20613;-65
2022/01/22 15:43:47;;;;;;;8.20;2.87;;;;;;;0.66;69.16;101306.44;10458991;28;20670;-66
2022/01/22 15:48:51;;;;;;;11.80;3.27;;;;;;;0.60;68.91;101306.19;10462654;28;20228;-67
2022/01/22 15:53:54;;;;;;;9.70;2.97;;;;;;;0.60;69.56;101314.72;10462700;28;20231;-65
2022/01/22 15:58:58;;;;;;;7.57;2.90;;;;;;;0.76;68.85;101321.41;10462563;28;20217;-66
2022/01/22 16:04:03;;;;;;;6.30;2.60;;;;;;;0.76;69.77;101319.69;10536808;28;20252;-64
2022/01/22 16:09:10;;;;;;;10.47;2.60;;;;;;;0.91;69.40;101322.06;10545257;28;20237;-62
2022/01/22 16:14:35;;;;;;;17.00;5.70;;;;;;;0.99;68.93;101328.38;10545270;28;20243;-65
2022/01/22 16:19:38;;;;;;;7.77;2.23;;;;;;;0.95;68.20;101337.56;10545005;28;20310;-64
2022/01/22 16:24:42;;;;;;;6.07;2.13;;;;;;;1.04;68.87;101339.66;10544862;28;20218;-62
2022/01/22 16:29:46;;;;;;;8.23;2.57;;;;;;;1.12;69.07;101349.41;10545101;28;20230;-64
2022/01/22 16:34:49;;;;;;;9.23;3.33;;;;;;;1.14;68.51;101352.91;10544072;28;20648;-63
2022/01/22 16:39:55;;;;;;;14.43;3.50;;;;;;;1.13;68.74;101355.41;10544026;28;20230;-64
2022/01/22 16:45:21;;;;;;;9.30;4.03;;;;;;;1.11;69.21;101355.34;10543937;28;20349;-65
2022/01/22 16:55:51;;;;;;;7.33;2.37;;;;;;;1.15;68.86;101371.69;10542712;28;20215;-64
2022/01/22 17:00:59;;;;;;;7.37;2.27;;;;;;;1.21;68.34;101381.31;10531954;28;20553;-64
2022/01/22 17:06:03;;;;;;;7.77;2.60;;;;;;;1.18;69.21;101389.69;10501554;28;20224;-63
2022/01/22 17:11:10;;;;;;;8.33;2.57;;;;;;;1.11;70.35;101391.13;10501209;28;20227;-65
2022/01/22 17:16:20;;;;;;;12.57;3.70;;;;;;;1.09;70.56;101397.84;10499530;28;20435;-66
2022/01/22 17:21:24;;;;;;;7.13;3.10;;;;;;;1.13;72.55;101398.84;10501093;28;20224;-66
2022/01/22 17:26:27;;;;;;;7.93;2.90;;;;;;;1.24;72.13;101397.66;10500713;28;20376;-67
2022/01/22 17:31:32;;;;;;;9.20;2.67;;;;;;;1.27;71.84;101402.88;10499948;28;20228;-63
2022/01/22 17:36:36;;;;;;;18.10;5.10;;;;;;;1.33;71.07;101398.03;10499873;28;20216;-66
2022/01/22 17:41:40;;;;;;;6.67;2.47;;;;;;;1.30;70.84;101407.25;10499998;28;20226;-63
2022/01/22 17:46:45;;;;;;;25.93;9.83;;;;;;;1.30;71.63;101408.13;10499782;28;20222;-66
2022/01/22 17:51:48;;;;;;;8.57;2.97;;;;;;;1.36;72.97;101408.41;10499175;28;20680;-62
2022/01/22 17:56:51;;;;;;;7.53;2.90;;;;;;;1.33;73.68;101400.59;10499313;28;20296;-62
2022/01/22 18:01:56;;;;;;;8.37;3.53;;;;;;;1.30;72.09;101397.03;10518260;28;20229;-64
2022/01/22 18:07:00;;;;;;;8.03;3.20;;;;;;;1.29;72.08;101410.63;10540151;28;20561;-63
2022/01/22 18:12:04;;;;;;;12.73;3.93;;;;;;;1.09;73.84;101414.84;10540496;28;20629;-62
2022/01/22 18:17:09;;;;;;;10.37;3.97;;;;;;;1.21;74.17;101407.72;10540061;28;20326;-63
2022/01/22 18:22:13;;;;;;;11.63;3.90;;;;;;;1.29;73.65;101414.06;10540339;28;20225;-65
2022/01/22 18:27:16;;;;;;;36.97;14.07;;;;;;;1.22;73.96;101409.50;10540133;28;20732;-66
2022/01/22 18:32:20;;;;;;;8.77;3.63;;;;;;;1.30;74.78;101405.56;10539561;28;20227;-64
2022/01/22 18:37:24;;;;;;;9.57;3.40;;;;;;;1.31;73.39;101403.91;10539680;28;20545;-66
2022/01/22 18:42:31;;;;;;;9.43;3.47;;;;;;;1.39;73.91;101405.97;10539696;28;20310;-63
2022/01/22 18:47:35;;;;;;;9.60;4.00;;;;;;;1.51;73.74;101411.63;10539384;28;20219;-68
2022/01/22 18:52:41;;;;;;;10.87;4.03;;;;;;;1.40;74.18;101412.81;10539088;28;20231;-64
2022/01/22 18:57:45;;;;;;;33.70;14.80;;;;;;;1.45;74.22;101415.59;10539402;28;20219;-66
2022/01/22 19:02:49;;;;;;;10.97;4.83;;;;;;;1.42;75.18;101405.22;10511782;28;20238;-64
2022/01/22 19:07:53;;;;;;;17.80;5.30;;;;;;;1.52;75.88;101412.50;10497033;28;20223;-66
2022/01/22 19:12:56;;;;;;;16.93;5.97;;;;;;;1.40;77.54;101415.38;10497204;28;20220;-65
2022/01/22 19:18:01;;;;;;;15.43;5.10;;;;;;;1.43;78.31;101405.31;10499600;28;20599;-63
2022/01/22 19:23:18;;;;;;;11.77;4.93;;;;;;;1.47;79.80;101407.16;10505084;28;20673;-65
2022/01/22 19:28:21;;;;;;;12.40;5.13;;;;;;;1.30;82.48;101404.69;10505697;28;20598;-63
2022/01/22 19:33:26;;;;;;;11.97;4.40;;;;;;;1.42;83.40;101400.09;10505002;28;20224;-69
2022/01/22 19:38:33;;;;;;;16.57;5.90;;;;;;;1.45;84.67;101403.66;10504646;28;20220;-69
2022/01/22 19:43:42;;;;;;;12.83;4.67;;;;;;;1.53;85.07;101406.56;10504699;28;20219;-65
2022/01/22 19:48:48;;;;;;;19.07;9.57;;;;;;;1.49;87.52;101397.00;10504578;28;20230;-66
2022/01/22 19:53:51;;;;;;;15.67;6.00;;;;;;;1.56;88.38;101407.56;10503309;28;20234;-64
2022/01/22 19:58:55;;;;;;;15.70;5.87;;;;;;;1.55;89.60;101403.28;10501432;28;20245;-64
2022/01/22 20:04:00;;;;;;;13.90;5.30;;;;;;;1.61;90.86;101390.72;10538105;28;20233;-63
2022/01/22 20:09:04;;;;;;;20.23;5.33;;;;;;;1.59;91.79;101407.69;10543995;28;20688;-64
2022/01/22 20:14:08;;;;;;;16.97;5.93;;;;;;;1.55;93.65;101392.16;10545692;28;20223;-64
2022/01/22 20:19:12;;;;;;;15.90;6.83;;;;;;;1.62;93.90;101384.81;10545087;28;20311;-66
2022/01/22 20:24:16;;;;;;;12.17;4.97;;;;;;;1.60;94.84;101394.09;10521405;28;20285;-63
2022/01/22 20:29:20;;;;;;;14.93;5.80;;;;;;;1.59;95.78;101397.47;10502785;28;20631;-65
2022/01/22 20:34:25;;;;;;;11.90;5.07;;;;;;;1.67;96.16;101392.69;10502434;28;20683;-64
2022/01/22 20:39:28;;;;;;;9.80;4.83;;;;;;;1.60;97.32;101400.91;10502494;28;20219;-64
2022/01/22 20:44:33;;;;;;;13.00;4.83;;;;;;;1.59;97.92;101399.16;10502382;28;20216;-65
2022/01/22 20:49:38;;;;;;;14.23;5.57;;;;;;;1.47;99.62;101403.75;10502062;28;20300;-64
2022/01/22 20:54:42;;;;;;;12.77;5.90;;;;;;;1.46;100.00;101392.66;10501833;28;20230;-66
2022/01/22 20:59:47;;;;;;;14.33;6.23;;;;;;;1.48;100.00;101400.38;10501574;28;20731;-65
2022/01/22 21:04:51;;;;;;;30.50;13.90;;;;;;;1.24;100.00;101407.00;10539049;28;20319;-68
2022/01/22 21:09:55;;;;;;;16.27;5.87;;;;;;;1.42;100.00;101408.66;10542910;28;20221;-65
2022/01/22 21:14:58;;;;;;;16.83;5.83;;;;;;;1.39;100.00;101411.09;10542872;28;20231;-64
2022/01/22 21:20:04;;;;;;;10.87;4.87;;;;;;;1.43;100.00;101413.00;10542438;28;20235;-65
2022/01/22 21:25:10;;;;;;;13.13;4.60;;;;;;;1.50;100.00;101425.19;10542326;28;20215;-63
2022/01/22 21:30:15;;;;;;;10.77;5.00;;;;;;;1.29;100.00;101424.28;10542362;28;20211;-64
2022/01/22 21:35:20;;;;;;;12.83;3.90;;;;;;;1.35;100.00;101432.22;10541804;28;20258;-64
2022/01/22 21:40:23;;;;;;;14.10;6.37;;;;;;;1.32;100.00;101434.66;10541200;28;20225;-63
2022/01/22 21:45:27;;;;;;;17.93;5.50;;;;;;;1.32;100.00;101436.31;10541413;28;20664;-63
2022/01/22 21:50:31;;;;;;;9.30;3.77;;;;;;;1.37;100.00;101434.84;10541313;28;20227;-64
2022/01/22 21:55:35;;;;;;;13.23;4.53;;;;;;;1.31;100.00;101430.34;10541231;28;20204;-64
2022/01/22 22:00:38;;;;;;;10.57;3.80;;;;;;;1.15;100.00;101435.59;10538474;28;20661;-65
2022/01/22 22:05:43;;;;;;;10.93;4.10;;;;;;;1.26;100.00;101441.19;10499193;28;20240;-66
2022/01/22 22:10:46;;;;;;;9.87;3.87;;;;;;;1.29;99.18;101434.53;10501977;28;20216;-63
2022/01/22 22:15:50;;;;;;;15.60;4.80;;;;;;;1.26;99.55;101436.06;10501603;28;20192;-67
2022/01/22 22:20:55;;;;;;;10.33;3.80;;;;;;;1.29;98.20;101437.06;10502036;28;20222;-66
2022/01/22 22:25:58;;;;;;;12.83;3.90;;;;;;;1.31;96.58;101434.59;10501835;28;20204;-64
2022/01/22 22:31:09;;;;;;;13.33;3.47;;;;;;;1.31;94.89;101432.03;10501530;28;20571;-69
2022/01/22 22:36:16;;;;;;;13.90;4.03;;;;;;;1.28;93.80;101435.31;10501281;28;20196;-66
2022/01/22 22:41:22;;;;;;;12.47;3.60;;;;;;;1.26;92.04;101439.47;10500951;28;20199;-66
2022/01/22 22:46:26;;;;;;;18.77;4.33;;;;;;;1.28;90.77;101440.41;10500888;28;20610;-65
2022/01/22 22:51:30;;;;;;;8.23;3.27;;;;;;;1.34;89.29;101445.81;10499827;28;20216;-66
2022/01/22 22:56:34;;;;;;;9.63;3.60;;;;;;;1.32;87.61;101444.88;10500930;28;20206;-65
2022/01/22 23:01:37;;;;;;;10.97;3.40;;;;;;;1.26;86.82;101448.84;10500859;28;20275;-66
2022/01/22 23:06:43;;;;;;;7.47;3.10;;;;;;;1.26;86.58;101457.38;10500821;28;20192;-64
2022/01/22 23:11:47;;;;;;;7.17;3.00;;;;;;;1.27;85.79;101448.91;10500471;28;20588;-64
2022/01/22 23:17:00;;;;;;;8.67;2.67;;;;;;;1.27;84.72;101459.13;10498565;28;20699;-64
2022/01/22 23:22:09;;;;;;;8.87;2.83;;;;;;;1.31;84.23;101445.69;10496931;28;20525;-63
2022/01/22 23:27:13;;;;;;;10.93;3.50;;;;;;;1.33;83.91;101446.59;10157192;27;10000056;-64
2022/01/22 23:32:25;;;;;;;12.93;3.93;;;;;;;1.36;82.92;101454.44;10538634;28;20215;-66
2022/01/22 23:59:14;;;;;;;10.53;3.07;;;;;;;1.24;83.54;101471.78;10526882;28;20246;-66
